createdAt,value
2019-02-08T00:00:51.229Z,94.40
2019-02-08T00:03:20.004Z,94.40
2019-02-08T00:05:48.810Z,94.40
2019-02-08T00:08:18.282Z,94.30
2019-02-08T00:10:46.954Z,94.30
2019-02-08T00:13:15.648Z,94.40
2019-02-08T00:15:44.469Z,94.40
2019-02-08T00:18:13.564Z,94.40
2019-02-08T00:20:42.557Z,94.30
2019-02-08T00:23:11.713Z,94.30
2019-02-08T00:25:40.651Z,94.30
2019-02-08T00:28:09.510Z,94.20
2019-02-08T00:30:38.636Z,94.30
2019-02-08T00:33:07.667Z,94.20
2019-02-08T00:35:36.778Z,94.20
2019-02-08T00:38:05.822Z,94.20
2019-02-08T00:40:34.562Z,94.20
2019-02-08T00:43:03.337Z,94.20
2019-02-08T00:45:32.115Z,94.20
2019-02-08T00:48:01.026Z,94.20
2019-02-08T00:50:29.790Z,94.30
2019-02-08T00:52:59.457Z,94.20
2019-02-08T00:55:28.198Z,94.20
2019-02-08T00:57:57.470Z,94.30
2019-02-08T01:00:26.518Z,94.40
2019-02-08T01:02:55.931Z,94.40
2019-02-08T01:05:25.050Z,94.30
2019-02-08T01:07:54.538Z,94.40
2019-02-08T01:10:25.467Z,94.40
2019-02-08T01:12:54.334Z,94.40
2019-02-08T01:15:24.078Z,94.50
2019-02-08T01:17:52.806Z,94.80
2019-02-08T01:20:21.821Z,94.50
2019-02-08T01:22:50.603Z,94.60
2019-02-08T01:25:20.930Z,94.60
2019-02-08T01:27:50.120Z,94.70
2019-02-08T01:30:24.189Z,94.80
2019-02-08T01:32:52.934Z,94.70
2019-02-08T01:35:22.606Z,94.70
2019-02-08T01:37:51.390Z,94.80
2019-02-08T01:40:22.067Z,94.80
2019-02-08T01:42:50.733Z,94.90
2019-02-08T01:45:21.717Z,94.90
2019-02-08T01:47:50.708Z,95.00
2019-02-08T01:50:23.794Z,95.00
2019-02-08T01:52:52.601Z,95.00
2019-02-08T01:55:22.250Z,95.10
2019-02-08T01:57:51.534Z,95.00
2019-02-08T02:00:28.728Z,95.00
2019-02-08T02:02:57.897Z,95.00
2019-02-08T02:05:26.955Z,95.00
2019-02-08T02:07:55.806Z,94.90
2019-02-08T02:10:32.286Z,95.00
2019-02-08T02:13:01.143Z,95.00
2019-02-08T02:15:30.519Z,95.10
2019-02-08T02:17:59.448Z,95.10
2019-02-08T02:20:30.294Z,95.20
2019-02-08T02:22:59.282Z,95.60
2019-02-08T02:25:28.311Z,95.40
2019-02-08T02:27:57.581Z,95.50
2019-02-08T02:30:28.146Z,95.40
2019-02-08T02:32:56.995Z,95.40
2019-02-08T02:35:26.435Z,95.40
2019-02-08T02:37:55.491Z,95.50
2019-02-08T02:40:24.319Z,95.90
2019-02-08T02:42:53.515Z,95.50
2019-02-08T02:45:27.299Z,95.40
2019-02-08T02:47:56.049Z,95.50
2019-02-08T02:50:25.487Z,95.50
2019-02-08T02:52:54.335Z,95.60
2019-02-08T02:55:24.330Z,95.60
2019-02-08T02:57:54.487Z,95.60
2019-02-08T03:00:30.038Z,95.50
2019-02-08T03:02:59.755Z,95.50
2019-02-08T03:05:28.733Z,95.50
2019-02-08T03:07:57.495Z,95.60
2019-02-08T03:10:26.371Z,95.60
2019-02-08T03:12:55.055Z,95.70
2019-02-08T03:15:24.510Z,95.70
2019-02-08T03:17:53.731Z,95.80
2019-02-08T03:20:22.762Z,95.90
2019-02-08T03:22:51.612Z,95.90
2019-02-08T03:25:22.550Z,95.80
2019-02-08T03:27:51.770Z,95.90
2019-02-08T03:30:25.760Z,95.90
2019-02-08T03:32:54.913Z,95.90
2019-02-08T03:35:24.383Z,96.00
2019-02-08T03:37:53.381Z,95.90
2019-02-08T03:40:24.090Z,95.90
2019-02-08T03:42:53.135Z,95.90
2019-02-08T03:45:22.171Z,95.90
2019-02-08T03:47:51.234Z,95.90
2019-02-08T03:50:20.724Z,96.00
2019-02-08T03:52:49.698Z,96.00
2019-02-08T03:55:19.572Z,96.00
2019-02-08T03:57:48.675Z,96.00
2019-02-08T04:00:27.154Z,95.90
2019-02-08T04:02:55.917Z,96.00
2019-02-08T04:05:24.784Z,96.10
2019-02-08T04:07:53.663Z,96.10
2019-02-08T04:10:22.959Z,96.10
2019-02-08T04:12:51.790Z,96.10
2019-02-08T04:15:21.030Z,96.20
2019-02-08T04:17:50.079Z,96.10
2019-02-08T04:20:19.262Z,96.10
2019-02-08T04:22:48.161Z,96.10
2019-02-08T04:25:17.717Z,96.10
2019-02-08T04:27:46.454Z,96.00
2019-02-08T04:30:18.755Z,96.00
2019-02-08T04:32:47.657Z,96.40
2019-02-08T04:35:16.471Z,96.10
2019-02-08T04:37:45.163Z,96.10
2019-02-08T04:40:15.410Z,96.10
2019-02-08T04:42:44.156Z,96.00
2019-02-08T04:45:12.915Z,96.00
2019-02-08T04:47:41.611Z,96.00
2019-02-08T04:50:13.019Z,96.10
2019-02-08T04:52:41.848Z,96.00
2019-02-08T04:55:10.807Z,96.10
2019-02-08T04:57:39.946Z,96.50
2019-02-08T05:00:17.389Z,96.20
2019-02-08T05:02:47.333Z,96.20
2019-02-08T05:05:16.134Z,96.20
2019-02-08T05:07:44.909Z,96.30
2019-02-08T05:10:14.917Z,96.50
2019-02-08T05:12:43.646Z,96.20
2019-02-08T05:15:13.135Z,96.30
2019-02-08T05:17:41.777Z,96.30
2019-02-08T05:20:12.186Z,96.30
2019-02-08T05:22:41.110Z,96.30
2019-02-08T05:25:10.301Z,96.30
2019-02-08T05:27:39.081Z,96.40
2019-02-08T05:30:11.667Z,96.40
2019-02-08T05:32:40.317Z,96.30
2019-02-08T05:35:09.203Z,96.40
2019-02-08T05:37:37.902Z,96.40
2019-02-08T05:40:07.938Z,96.30
2019-02-08T05:42:37.574Z,96.30
2019-02-08T05:45:07.999Z,96.60
2019-02-08T05:47:37.017Z,96.40
2019-02-08T05:50:08.046Z,96.30
2019-02-08T05:52:36.837Z,96.50
2019-02-08T05:55:07.008Z,96.40
2019-02-08T05:57:35.678Z,96.30
2019-02-08T06:00:09.346Z,96.40
2019-02-08T06:02:38.256Z,96.40
2019-02-08T06:05:07.832Z,96.40
2019-02-08T06:07:36.633Z,96.40
2019-02-08T06:10:07.162Z,96.40
2019-02-08T06:12:36.259Z,96.40
2019-02-08T06:15:06.539Z,96.50
2019-02-08T06:17:35.933Z,96.30
2019-02-08T06:20:07.102Z,96.30
2019-02-08T06:22:35.799Z,96.50
2019-02-08T06:25:06.565Z,96.50
2019-02-08T06:27:35.507Z,96.50
2019-02-08T06:30:06.500Z,96.60
2019-02-08T06:32:35.470Z,96.60
2019-02-08T06:35:05.467Z,96.60
2019-02-08T06:37:34.258Z,96.60
2019-02-08T06:40:03.041Z,96.90
2019-02-08T06:42:31.701Z,97.40
2019-02-08T06:45:03.614Z,97.20
2019-02-08T06:47:32.302Z,97.50
2019-02-08T06:50:01.178Z,96.30
2019-02-08T06:52:29.913Z,96.10
2019-02-08T06:54:58.592Z,96.20
2019-02-08T06:57:38.902Z,96.00
2019-02-08T07:00:28.874Z,96.00
2019-02-08T07:03:25.886Z,95.80
2019-02-08T07:06:20.070Z,95.40
2019-02-08T07:09:06.414Z,94.70
2019-02-08T07:11:47.395Z,94.00
2019-02-08T07:14:38.394Z,93.20
2019-02-08T07:17:33.826Z,92.40
2019-02-08T07:20:24.735Z,91.90
2019-02-08T07:23:18.831Z,90.70
2019-02-08T07:26:07.915Z,88.70
2019-02-08T07:28:45.360Z,85.90
2019-02-08T07:31:42.216Z,85.10
2019-02-08T07:34:28.876Z,85.40
2019-02-08T07:37:18.162Z,86.00
2019-02-08T07:40:10.287Z,84.90
2019-02-08T07:43:04.265Z,84.10
2019-02-08T07:45:45.320Z,82.10
2019-02-08T07:48:33.041Z,79.10
2019-02-08T07:51:24.623Z,75.60
2019-02-08T07:54:08.166Z,72.30
2019-02-08T07:57:09.911Z,70.20
2019-02-08T07:59:59.514Z,66.10
2019-02-08T08:02:45.747Z,62.90
2019-02-08T08:05:34.385Z,62.50
2019-02-08T08:08:16.384Z,65.10
2019-02-08T08:10:50.242Z,68.80
2019-02-08T08:13:27.150Z,71.50
2019-02-08T08:16:13.685Z,73.00
2019-02-08T08:19:11.113Z,73.50
2019-02-08T08:21:50.919Z,73.90
2019-02-08T08:24:35.567Z,73.00
2019-02-08T08:27:29.865Z,73.10
2019-02-08T08:30:26.727Z,73.90
2019-02-08T08:33:14.152Z,74.80
2019-02-08T08:36:11.110Z,74.80
2019-02-08T08:39:23.770Z,76.20
2019-02-08T08:42:19.194Z,77.00
2019-02-08T08:45:39.900Z,74.00
2019-02-08T08:48:51.017Z,67.00
2019-02-08T08:51:44.660Z,54.60
2019-02-08T08:55:03.479Z,53.20
2019-02-08T08:58:05.451Z,52.10
2019-02-08T09:00:59.415Z,51.20
2019-02-08T09:03:58.115Z,49.30
2019-02-08T09:07:03.158Z,48.40
2019-02-08T09:10:19.563Z,50.30
2019-02-08T09:13:41.850Z,49.40
2019-02-08T09:16:55.919Z,48.40
2019-02-08T09:20:07.178Z,45.80
2019-02-08T09:23:06.366Z,46.10
2019-02-08T09:25:59.352Z,46.50
2019-02-08T09:29:04.002Z,46.10
2019-02-08T09:32:19.372Z,45.30
2019-02-08T09:35:29.730Z,45.10
2019-02-08T09:38:24.442Z,45.00
2019-02-08T09:41:35.798Z,44.30
2019-02-08T09:44:32.598Z,43.60
2019-02-08T09:47:36.994Z,44.50
2019-02-08T09:50:42.626Z,44.40
2019-02-08T09:53:43.022Z,44.20
2019-02-08T09:56:37.819Z,45.00
2019-02-08T09:59:48.162Z,46.00
2019-02-08T10:02:44.369Z,44.80
2019-02-08T10:05:36.796Z,44.10
2019-02-08T10:08:34.822Z,44.90
2019-02-08T10:11:46.397Z,44.60
2019-02-08T10:14:42.909Z,44.40
2019-02-08T10:18:02.106Z,44.40
2019-02-08T10:21:17.086Z,44.70
2019-02-08T10:24:18.908Z,46.20
2019-02-08T10:27:34.981Z,48.90
2019-02-08T10:30:28.782Z,53.60
2019-02-08T10:33:41.214Z,58.20
2019-02-08T10:36:56.033Z,59.80
2019-02-08T10:40:03.426Z,61.60
2019-02-08T10:43:14.785Z,63.10
2019-02-08T10:46:19.525Z,65.00
2019-02-08T10:49:16.370Z,64.00
2019-02-08T10:52:29.627Z,61.90
2019-02-08T10:55:26.067Z,61.50
2019-02-08T10:58:40.106Z,62.20
2019-02-08T11:01:41.942Z,62.10
2019-02-08T11:04:45.538Z,63.60
2019-02-08T11:07:58.539Z,63.50
2019-02-08T11:10:54.399Z,64.00
2019-02-08T11:13:50.985Z,65.00
2019-02-08T11:16:53.022Z,64.80
2019-02-08T11:19:21.621Z,64.70
2019-02-08T11:21:51.525Z,64.60
2019-02-08T11:24:27.180Z,64.80
2019-02-08T11:26:58.974Z,64.20
2019-02-08T11:29:27.929Z,64.00
2019-02-08T11:31:56.658Z,64.90
2019-02-08T11:34:25.331Z,64.60
2019-02-08T11:36:54.140Z,64.20
2019-02-08T11:39:22.897Z,64.10
2019-02-08T11:41:51.770Z,65.60
2019-02-08T11:44:21.889Z,65.40
2019-02-08T11:46:50.743Z,65.00
2019-02-08T11:49:19.711Z,64.70
2019-02-08T11:51:48.738Z,65.10
2019-02-08T11:54:18.189Z,65.10
2019-02-08T11:56:47.165Z,65.40
2019-02-08T11:59:15.843Z,66.50
2019-02-08T12:01:47.178Z,67.30
2019-02-08T12:04:16.475Z,67.60
2019-02-08T12:06:45.177Z,67.00
2019-02-08T12:09:15.802Z,66.70
2019-02-08T12:11:44.458Z,66.90
2019-02-08T12:14:13.271Z,67.20
2019-02-08T12:16:42.145Z,68.00
2019-02-08T12:19:12.038Z,67.80
2019-02-08T12:21:40.702Z,68.30
2019-02-08T12:24:10.151Z,69.30
2019-02-08T12:26:38.835Z,68.80
2019-02-08T12:29:07.950Z,68.50
2019-02-08T12:31:36.778Z,68.70
2019-02-08T12:34:05.880Z,68.20
2019-02-08T12:36:34.725Z,68.50
2019-02-08T12:39:05.076Z,69.10
2019-02-08T12:41:34.450Z,69.30
2019-02-08T12:44:03.343Z,69.90
2019-02-08T12:46:32.009Z,69.60
2019-02-08T12:49:00.696Z,69.80
2019-02-08T12:51:29.366Z,69.70
2019-02-08T12:53:58.039Z,69.90
2019-02-08T12:56:26.912Z,69.90
2019-02-08T12:58:56.434Z,69.80
2019-02-08T13:01:25.451Z,70.10
2019-02-08T13:03:54.618Z,70.70
2019-02-08T13:06:23.301Z,70.30
2019-02-08T13:08:51.975Z,70.30
2019-02-08T13:11:20.819Z,70.60
2019-02-08T13:13:49.502Z,70.70
2019-02-08T13:16:18.214Z,71.10
2019-02-08T13:18:46.916Z,71.60
2019-02-08T13:21:17.136Z,71.00
2019-02-08T13:23:45.821Z,71.40
2019-02-08T13:26:14.473Z,71.50
2019-02-08T13:28:43.193Z,71.70
2019-02-08T13:31:11.964Z,71.20
2019-02-08T13:33:40.695Z,72.00
2019-02-08T13:36:14.628Z,72.10
2019-02-08T13:38:43.378Z,72.60
2019-02-08T13:41:12.123Z,72.20
2019-02-08T13:43:41.159Z,71.70
2019-02-08T13:46:10.297Z,71.80
2019-02-08T13:48:39.205Z,72.00
2019-02-08T13:51:07.855Z,71.80
2019-02-08T13:53:36.521Z,72.60
2019-02-08T13:56:05.482Z,72.90
2019-02-08T13:58:34.362Z,72.60
2019-02-08T14:01:03.379Z,73.40
2019-02-08T14:03:32.090Z,73.00
2019-02-08T14:06:00.750Z,73.50
2019-02-08T14:08:29.532Z,73.90
2019-02-08T14:10:58.215Z,74.10
2019-02-08T14:13:27.097Z,74.40
2019-02-08T14:15:55.955Z,74.30
2019-02-08T14:18:25.126Z,74.60
2019-02-08T14:20:53.817Z,74.80
2019-02-08T14:23:23.537Z,74.00
2019-02-08T14:25:52.195Z,74.70
2019-02-08T14:28:20.868Z,73.90
2019-02-08T14:30:50.052Z,74.00
2019-02-08T14:33:19.029Z,74.00
2019-02-08T14:35:47.842Z,73.90
2019-02-08T14:38:20.026Z,74.40
2019-02-08T14:40:48.681Z,74.30
2019-02-08T14:43:18.382Z,74.50
2019-02-08T14:45:47.141Z,75.20
2019-02-08T14:48:15.802Z,75.00
2019-02-08T14:50:44.470Z,75.40
2019-02-08T14:53:13.294Z,75.30
2019-02-08T14:55:43.297Z,75.30
2019-02-08T14:58:12.637Z,75.40
2019-02-08T15:00:41.586Z,75.60
2019-02-08T15:03:20.253Z,75.90
2019-02-08T15:05:53.903Z,76.10
2019-02-08T15:08:24.094Z,76.00
2019-02-08T15:10:53.102Z,75.80
2019-02-08T15:13:30.082Z,76.20
2019-02-08T15:16:01.654Z,76.00
2019-02-08T15:18:30.246Z,76.50
2019-02-08T15:20:59.153Z,76.40
2019-02-08T15:23:27.854Z,76.50
2019-02-08T15:25:57.095Z,77.00
2019-02-08T15:28:25.778Z,77.10
2019-02-08T15:30:54.701Z,77.20
2019-02-08T15:33:23.357Z,77.30
2019-02-08T15:35:52.231Z,77.30
2019-02-08T15:38:20.886Z,77.00
2019-02-08T15:40:52.222Z,76.90
2019-02-08T15:43:22.357Z,77.00
2019-02-08T15:45:53.877Z,77.10
2019-02-08T15:48:22.755Z,76.90
2019-02-08T15:50:51.607Z,76.50
2019-02-08T15:53:20.511Z,76.80
2019-02-08T15:55:51.374Z,76.70
2019-02-08T15:58:20.479Z,76.90
2019-02-08T16:00:49.205Z,77.10
2019-02-08T16:03:18.025Z,77.20
2019-02-08T16:05:46.709Z,77.50
2019-02-08T16:08:15.426Z,77.50
2019-02-08T16:10:44.078Z,77.40
2019-02-08T16:13:12.995Z,77.40
2019-02-08T16:15:42.071Z,77.30
2019-02-08T16:18:11.127Z,77.50
2019-02-08T16:20:40.165Z,77.20
2019-02-08T16:23:08.882Z,77.50
2019-02-08T16:25:37.611Z,77.50
2019-02-08T16:28:06.597Z,77.60
2019-02-08T16:30:35.538Z,77.90
2019-02-08T16:33:04.819Z,78.20
2019-02-08T16:35:33.618Z,78.20
2019-02-08T16:38:02.943Z,78.20
2019-02-08T16:40:32.177Z,78.30
2019-02-08T16:43:00.998Z,78.50
2019-02-08T16:45:32.012Z,78.60
2019-02-08T16:48:01.563Z,78.40
2019-02-08T16:50:31.186Z,78.60
2019-02-08T16:53:00.422Z,78.80
2019-02-08T16:55:29.291Z,78.60
2019-02-08T16:57:58.632Z,78.60
2019-02-08T17:00:31.990Z,78.70
2019-02-08T17:03:03.378Z,78.60
2019-02-08T17:05:33.855Z,78.70
2019-02-08T17:08:02.626Z,78.70
2019-02-08T17:10:31.442Z,78.70
2019-02-08T17:13:00.143Z,78.60
2019-02-08T17:15:29.271Z,78.50
2019-02-08T17:17:58.265Z,78.70
2019-02-08T17:20:29.365Z,78.60
2019-02-08T17:22:58.578Z,78.60
2019-02-08T17:25:27.610Z,78.80
2019-02-08T17:27:56.701Z,79.00
2019-02-08T17:30:25.963Z,79.40
2019-02-08T17:32:54.814Z,79.70
2019-02-08T17:35:23.786Z,80.20
2019-02-08T17:37:53.412Z,80.40
2019-02-08T17:40:24.486Z,80.30
2019-02-08T17:42:53.171Z,80.50
2019-02-08T17:45:21.924Z,80.70
2019-02-08T17:47:51.405Z,80.80
2019-02-08T17:50:22.758Z,81.00
2019-02-08T17:52:51.514Z,81.00
2019-02-08T17:55:21.548Z,81.30
2019-02-08T17:57:50.693Z,80.90
2019-02-08T18:00:27.694Z,80.90
2019-02-08T18:02:56.587Z,80.90
2019-02-08T18:05:25.267Z,80.70
2019-02-08T18:07:53.950Z,80.80
2019-02-08T18:10:22.817Z,81.30
2019-02-08T18:12:51.550Z,81.70
2019-02-08T18:15:20.895Z,82.00
2019-02-08T18:17:49.947Z,82.30
2019-02-08T18:20:21.542Z,82.60
2019-02-08T18:22:50.514Z,82.60
2019-02-08T18:25:19.797Z,83.00
2019-02-08T18:27:48.499Z,83.20
2019-02-08T18:30:18.728Z,83.20
2019-02-08T18:32:48.646Z,83.40
2019-02-08T18:35:17.761Z,83.50
2019-02-08T18:37:46.447Z,83.70
2019-02-08T18:40:16.635Z,84.10
2019-02-08T18:42:45.421Z,84.30
2019-02-08T18:45:17.524Z,84.50
2019-02-08T18:47:47.618Z,84.50
2019-02-08T18:50:19.471Z,84.50
2019-02-08T18:52:48.135Z,84.60
2019-02-08T18:55:17.389Z,84.70
2019-02-08T18:57:46.306Z,85.00
2019-02-08T19:00:17.818Z,85.10
2019-02-08T19:02:46.590Z,85.20
2019-02-08T19:05:16.395Z,85.30
2019-02-08T19:07:45.306Z,85.30
2019-02-08T19:10:15.805Z,85.30
2019-02-08T19:12:44.776Z,85.30
2019-02-08T19:15:15.006Z,85.70
2019-02-08T19:17:43.971Z,86.50
2019-02-08T19:20:17.137Z,86.00
2019-02-08T19:22:46.248Z,86.20
2019-02-08T19:25:23.866Z,86.20
2019-02-08T19:27:52.614Z,86.40
2019-02-08T19:30:23.564Z,86.40
2019-02-08T19:32:52.570Z,86.40
2019-02-08T19:35:21.473Z,86.60
2019-02-08T19:37:50.386Z,86.50
2019-02-08T19:40:21.563Z,86.50
2019-02-08T19:42:50.633Z,87.30
2019-02-08T19:45:19.903Z,86.70
2019-02-08T19:47:48.663Z,86.70
2019-02-08T19:50:31.648Z,86.80
2019-02-08T19:53:00.445Z,86.80
2019-02-08T19:55:29.637Z,86.90
2019-02-08T19:58:01.560Z,86.80
2019-02-08T20:00:34.436Z,86.80
2019-02-08T20:03:03.415Z,86.70
2019-02-08T20:05:32.261Z,86.80
2019-02-08T20:08:01.636Z,86.90
2019-02-08T20:10:32.201Z,86.90
2019-02-08T20:13:01.465Z,87.00
2019-02-08T20:15:30.529Z,87.10
2019-02-08T20:17:59.594Z,87.00
2019-02-08T20:20:28.515Z,86.80
2019-02-08T20:22:57.690Z,86.80
2019-02-08T20:25:28.364Z,86.80
2019-02-08T20:27:57.303Z,86.70
2019-02-08T20:30:27.041Z,86.40
2019-02-08T20:32:55.710Z,86.30
2019-02-08T20:35:24.475Z,86.00
2019-02-08T20:37:53.430Z,85.90
2019-02-08T20:40:24.253Z,85.80
2019-02-08T20:42:53.250Z,85.70
2019-02-08T20:45:24.355Z,85.60
2019-02-08T20:47:53.259Z,85.50
2019-02-08T20:50:23.201Z,85.30
2019-02-08T20:52:52.586Z,85.20
2019-02-08T20:55:22.153Z,85.00
2019-02-08T20:57:50.896Z,84.80
2019-02-08T21:00:34.178Z,84.50
2019-02-08T21:03:05.190Z,84.50
2019-02-08T21:05:33.996Z,84.40
2019-02-08T21:08:02.779Z,84.30
2019-02-08T21:10:31.682Z,84.30
2019-02-08T21:13:00.464Z,84.50
2019-02-08T21:15:29.349Z,84.60
2019-02-08T21:17:58.356Z,85.00
2019-02-08T21:20:27.097Z,85.30
2019-02-08T21:22:56.030Z,85.40
2019-02-08T21:25:26.616Z,85.70
2019-02-08T21:27:55.922Z,85.90
2019-02-08T21:30:24.806Z,85.90
2019-02-08T21:32:54.273Z,86.20
2019-02-08T21:35:23.616Z,86.20
2019-02-08T21:37:52.498Z,86.30
2019-02-08T21:40:23.972Z,86.70
2019-02-08T21:42:53.074Z,87.00
2019-02-08T21:45:24.567Z,87.20
2019-02-08T21:47:53.323Z,87.60
2019-02-08T21:50:22.621Z,87.70
2019-02-08T21:52:51.397Z,87.70
2019-02-08T21:55:20.469Z,87.90
2019-02-08T21:57:49.210Z,88.10
2019-02-08T22:00:25.954Z,88.30
2019-02-08T22:02:54.662Z,88.40
2019-02-08T22:05:28.707Z,88.70
2019-02-08T22:07:57.431Z,88.70
2019-02-08T22:10:26.809Z,88.80
2019-02-08T22:12:55.752Z,88.90
2019-02-08T22:15:27.577Z,88.90
2019-02-08T22:17:56.681Z,88.90
2019-02-08T22:20:25.599Z,89.10
2019-02-08T22:22:54.377Z,89.90
2019-02-08T22:25:24.190Z,89.20
2019-02-08T22:27:52.846Z,89.10
2019-02-08T22:30:23.083Z,89.20
2019-02-08T22:32:53.506Z,89.30
2019-02-08T22:35:23.659Z,89.30
2019-02-08T22:37:52.511Z,89.30
2019-02-08T22:40:21.791Z,89.30
2019-02-08T22:42:50.913Z,89.40
2019-02-08T22:45:26.110Z,89.40
2019-02-08T22:47:54.918Z,89.50
2019-02-08T22:50:23.951Z,89.60
2019-02-08T22:52:52.958Z,89.70
2019-02-08T22:55:22.819Z,89.70
2019-02-08T22:57:51.550Z,89.70
2019-02-08T23:01:00.610Z,89.80
2019-02-08T23:03:29.642Z,89.90
2019-02-08T23:05:58.285Z,90.00
2019-02-08T23:08:27.418Z,90.00
2019-02-08T23:10:57.170Z,90.00
2019-02-08T23:13:26.004Z,90.00
2019-02-08T23:15:54.882Z,90.00
2019-02-08T23:18:23.590Z,90.30
2019-02-08T23:20:52.485Z,89.90
2019-02-08T23:23:21.162Z,89.60
2019-02-08T23:25:49.914Z,89.40
2019-02-08T23:28:18.665Z,90.00
2019-02-08T23:30:47.414Z,88.90
2019-02-08T23:33:16.325Z,88.70
2019-02-08T23:35:44.999Z,88.60
2019-02-08T23:38:13.950Z,88.20
2019-02-08T23:40:42.871Z,88.20
2019-02-08T23:43:11.962Z,87.90
2019-02-08T23:45:41.446Z,87.80
2019-02-08T23:48:10.717Z,87.60
2019-02-08T23:50:39.519Z,87.50
2019-02-08T23:53:09.609Z,87.40
2019-02-08T23:55:38.665Z,87.20
2019-02-08T23:58:07.870Z,87.00
